createdAt,value
2022-08-24T00:00:13.095Z,1.30
2022-08-24T00:02:40.246Z,1.05
2022-08-24T00:05:12.696Z,1.17
2022-08-24T00:07:41.725Z,1.30
2022-08-24T00:10:11.510Z,1.00
2022-08-24T00:12:40.246Z,1.10
2022-08-24T00:15:10.926Z,1.30
2022-08-24T00:17:38.100Z,1.05
2022-08-24T00:20:07.084Z,1.20
2022-08-24T00:22:34.138Z,1.35
2022-08-24T00:25:01.320Z,1.25
2022-08-24T00:27:28.374Z,1.23
2022-08-24T00:29:56.776Z,1.00
2022-08-24T00:32:23.884Z,1.23
2022-08-24T00:34:58.695Z,1.17
2022-08-24T00:37:27.423Z,1.25
2022-08-24T00:39:54.678Z,1.42
2022-08-24T00:42:21.930Z,1.33
2022-08-24T00:44:49.232Z,1.20
2022-08-24T00:47:23.925Z,1.30
2022-08-24T00:49:58.008Z,1.27
2022-08-24T00:52:31.053Z,1.25
2022-08-24T00:55:06.931Z,1.35
2022-08-24T00:57:38.867Z,1.13
2022-08-24T01:00:13.756Z,1.30
2022-08-24T01:02:47.986Z,1.13
2022-08-24T01:05:16.172Z,1.23
2022-08-24T01:07:43.021Z,1.30
2022-08-24T01:10:14.859Z,1.20
2022-08-24T01:12:48.179Z,1.60
2022-08-24T01:15:28.526Z,1.40
2022-08-24T01:17:57.596Z,1.20
2022-08-24T01:20:25.286Z,1.27
2022-08-24T01:23:06.827Z,1.30
2022-08-24T01:25:38.993Z,1.40
2022-08-24T01:28:13.195Z,1.23
2022-08-24T01:30:43.658Z,1.20
2022-08-24T01:33:23.157Z,1.13
2022-08-24T01:35:54.325Z,1.40
2022-08-24T01:38:21.361Z,1.40
2022-08-24T01:40:57.194Z,1.55
2022-08-24T01:43:24.593Z,1.30
2022-08-24T01:45:51.892Z,1.20
2022-08-24T01:48:22.691Z,1.33
2022-08-24T01:50:51.631Z,1.13
2022-08-24T01:53:21.265Z,1.38
2022-08-24T01:55:49.724Z,1.10
2022-08-24T01:58:16.783Z,1.38
2022-08-24T02:00:44.805Z,1.60
2022-08-24T02:03:14.171Z,1.30
2022-08-24T02:05:44.491Z,1.50
2022-08-24T02:08:14.852Z,1.50
2022-08-24T02:10:41.832Z,1.30
2022-08-24T02:13:19.183Z,1.50
2022-08-24T02:15:46.285Z,1.30
2022-08-24T02:18:15.778Z,1.40
2022-08-24T02:20:44.567Z,1.40
2022-08-24T02:23:11.964Z,1.48
2022-08-24T02:25:38.806Z,1.33
2022-08-24T02:28:06.170Z,1.27
2022-08-24T02:30:34.411Z,1.33
2022-08-24T02:33:01.683Z,1.23
2022-08-24T02:35:30.419Z,1.45
2022-08-24T02:37:58.522Z,1.40
2022-08-24T02:40:27.507Z,1.38
2022-08-24T02:42:55.879Z,1.40
2022-08-24T02:45:23.126Z,1.45
2022-08-24T02:47:51.417Z,1.50
2022-08-24T02:50:19.951Z,1.50
2022-08-24T02:52:47.301Z,1.58
2022-08-24T02:55:19.861Z,1.45
2022-08-24T02:57:50.030Z,1.38
2022-08-24T03:00:22.497Z,1.20
2022-08-24T03:02:55.777Z,1.58
2022-08-24T03:05:24.313Z,1.38
2022-08-24T03:07:52.261Z,1.50
2022-08-24T03:10:20.447Z,1.60
2022-08-24T03:12:47.714Z,1.42
2022-08-24T03:15:14.889Z,1.50
2022-08-24T03:17:42.989Z,1.50
2022-08-24T03:20:18.195Z,1.45
2022-08-24T03:22:45.909Z,1.35
2022-08-24T03:25:14.868Z,1.40
2022-08-24T03:27:41.854Z,1.35
2022-08-24T03:30:13.594Z,1.27
2022-08-24T03:32:42.692Z,1.50
2022-08-24T03:35:12.978Z,1.40
2022-08-24T03:37:40.059Z,1.55
2022-08-24T03:40:22.535Z,1.45
2022-08-24T03:42:54.001Z,1.70
2022-08-24T03:45:22.409Z,1.60
2022-08-24T03:47:50.162Z,1.30
2022-08-24T03:50:19.758Z,1.60
2022-08-24T03:52:46.708Z,1.50
2022-08-24T03:55:13.864Z,1.45
2022-08-24T03:57:41.460Z,1.42
2022-08-24T04:00:12.816Z,1.63
2022-08-24T04:02:48.722Z,1.42
2022-08-24T04:05:21.110Z,1.63
2022-08-24T04:07:48.268Z,1.50
2022-08-24T04:10:15.208Z,1.55
2022-08-24T04:12:42.366Z,1.60
2022-08-24T04:15:11.370Z,1.30
2022-08-24T04:17:39.459Z,1.60
2022-08-24T04:20:08.513Z,1.70
2022-08-24T04:22:38.772Z,1.77
2022-08-24T04:25:09.389Z,1.98
2022-08-24T04:27:40.228Z,1.60
2022-08-24T04:30:10.275Z,1.50
2022-08-24T04:33:20.401Z,1.50
2022-08-24T04:35:48.815Z,1.63
2022-08-24T04:38:19.324Z,1.40
2022-08-24T04:41:00.880Z,1.55
2022-08-24T04:43:27.974Z,1.52
2022-08-24T04:45:58.359Z,1.60
2022-08-24T04:48:25.521Z,2.70
2022-08-24T04:50:52.442Z,1.50
2022-08-24T04:53:20.774Z,1.70
2022-08-24T04:55:50.022Z,1.65
2022-08-24T04:58:18.572Z,1.42
2022-08-24T05:00:46.475Z,1.58
2022-08-24T05:03:14.547Z,1.63
2022-08-24T05:05:42.996Z,1.65
2022-08-24T05:08:10.482Z,1.88
2022-08-24T05:10:41.257Z,1.60
2022-08-24T05:13:08.892Z,1.90
2022-08-24T05:15:40.345Z,1.70
2022-08-24T05:18:07.425Z,1.58
2022-08-24T05:20:34.878Z,1.77
2022-08-24T05:23:04.514Z,1.88
2022-08-24T05:25:40.510Z,1.77
2022-08-24T05:28:07.792Z,1.92
2022-08-24T05:30:37.340Z,1.95
2022-08-24T05:33:06.506Z,2.25
2022-08-24T05:35:37.892Z,2.20
2022-08-24T05:38:06.529Z,2.50
2022-08-24T05:40:38.745Z,2.05
2022-08-24T05:43:12.415Z,2.13
2022-08-24T05:45:41.593Z,2.03
2022-08-24T05:48:08.769Z,2.00
2022-08-24T05:50:57.919Z,2.33
2022-08-24T05:53:29.225Z,2.40
2022-08-24T05:56:03.383Z,2.58
2022-08-24T05:58:31.191Z,3.10
2022-08-24T06:01:07.198Z,2.40
2022-08-24T06:03:41.317Z,2.22
2022-08-24T06:06:10.776Z,2.05
2022-08-24T06:08:42.028Z,2.45
2022-08-24T06:11:12.752Z,2.40
2022-08-24T06:13:39.883Z,2.30
2022-08-24T06:16:21.324Z,2.40
2022-08-24T06:18:51.216Z,2.30
2022-08-24T06:21:21.915Z,1.95
2022-08-24T06:23:50.077Z,2.35
2022-08-24T06:26:23.254Z,2.35
2022-08-24T06:28:50.789Z,2.10
2022-08-24T06:31:21.336Z,2.03
2022-08-24T06:33:48.591Z,1.90
2022-08-24T06:39:10.227Z,1.98
2022-08-24T06:41:42.195Z,1.50
2022-08-24T06:44:11.525Z,2.30
2022-08-24T06:47:00.105Z,2.00
2022-08-24T06:49:26.960Z,1.90
2022-08-24T06:51:53.838Z,2.40
2022-08-24T06:54:21.230Z,2.30
2022-08-24T06:56:50.568Z,1.90
2022-08-24T06:59:17.616Z,1.88
2022-08-24T07:01:44.666Z,2.00
2022-08-24T07:04:11.896Z,1.88
2022-08-24T07:07:07.861Z,2.00
2022-08-24T07:09:35.990Z,1.58
2022-08-24T07:12:05.883Z,1.42
2022-08-24T07:14:33.195Z,2.35
2022-08-24T07:17:01.967Z,1.50
2022-08-24T07:19:30.720Z,1.85
2022-08-24T07:21:58.343Z,1.60
2022-08-24T07:24:26.875Z,1.70
2022-08-24T07:26:54.673Z,1.70
2022-08-24T07:29:46.202Z,2.10
2022-08-24T07:32:09.924Z,1.55
2022-08-24T07:34:39.963Z,1.38
2022-08-24T07:37:08.080Z,1.60
2022-08-24T07:39:38.505Z,1.60
2022-08-24T07:42:13.811Z,1.30
2022-08-24T07:44:44.163Z,1.70
2022-08-24T07:47:36.343Z,1.50
2022-08-24T07:49:58.941Z,1.77
2022-08-24T07:52:27.435Z,1.45
2022-08-24T07:54:54.602Z,1.40
2022-08-24T07:57:21.493Z,1.50
2022-08-24T07:59:50.121Z,1.40
2022-08-24T08:02:17.550Z,1.50
2022-08-24T08:04:48.917Z,1.42
2022-08-24T08:07:17.018Z,1.48
2022-08-24T08:09:44.202Z,1.35
2022-08-24T08:12:13.129Z,1.50
2022-08-24T08:14:53.697Z,1.30
2022-08-24T08:17:20.733Z,1.77
2022-08-24T08:19:48.249Z,1.40
2022-08-24T08:22:16.319Z,1.50
2022-08-24T08:25:02.039Z,1.30
2022-08-24T08:27:28.983Z,1.55
2022-08-24T08:29:57.364Z,1.50
2022-08-24T08:32:24.486Z,1.50
2022-08-24T08:34:51.751Z,1.30
2022-08-24T08:37:19.409Z,1.52
2022-08-24T08:39:46.998Z,1.50
2022-08-24T08:45:35.126Z,1.40
2022-08-24T08:48:57.092Z,1.38
2022-08-24T08:52:23.889Z,1.45
2022-08-24T08:55:20.122Z,1.40
2022-08-24T08:57:58.302Z,1.40
2022-08-24T09:00:48.261Z,1.20
2022-08-24T09:03:37.821Z,1.67
2022-08-24T09:06:57.121Z,1.40
2022-08-24T09:10:17.180Z,1.73
2022-08-24T09:13:07.529Z,1.30
2022-08-24T09:16:16.372Z,1.20
2022-08-24T09:19:10.911Z,1.30
2022-08-24T09:22:09.334Z,1.70
2022-08-24T09:25:10.082Z,1.50
2022-08-24T09:28:14.852Z,1.30
2022-08-24T09:31:26.739Z,1.40
2022-08-24T09:34:17.298Z,1.30
2022-08-24T09:36:55.222Z,1.35
2022-08-24T09:40:00.927Z,1.48
2022-08-24T09:43:11.994Z,1.50
2022-08-24T09:46:38.474Z,1.30
2022-08-24T09:50:07.604Z,1.50
2022-08-24T09:53:39.090Z,1.23
2022-08-24T09:56:25.377Z,1.20
2022-08-24T09:59:18.391Z,1.30
2022-08-24T10:02:05.328Z,1.48
2022-08-24T10:04:44.309Z,1.63
2022-08-24T10:07:23.488Z,1.50
2022-08-24T10:10:12.956Z,1.40
2022-08-24T10:12:57.184Z,1.42
2022-08-24T10:15:31.692Z,1.42
2022-08-24T10:18:21.983Z,1.30
2022-08-24T10:21:17.964Z,1.40
2022-08-24T10:24:06.830Z,1.40
2022-08-24T10:27:00.563Z,1.17
2022-08-24T10:30:03.195Z,1.50
2022-08-24T10:33:04.599Z,1.27
2022-08-24T10:35:45.602Z,1.38
2022-08-24T10:38:27.564Z,1.38
2022-08-24T10:41:23.454Z,1.30
2022-08-24T10:44:14.501Z,1.50
2022-08-24T10:46:50.549Z,1.33
2022-08-24T10:50:14.068Z,1.20
2022-08-24T10:53:24.175Z,1.33
2022-08-24T10:56:05.388Z,1.30
2022-08-24T11:01:26.302Z,1.30
2022-08-24T11:04:06.321Z,1.30
2022-08-24T11:06:37.948Z,1.25
2022-08-24T11:09:12.321Z,1.20
2022-08-24T11:11:44.171Z,1.30
2022-08-24T11:14:28.352Z,1.17
2022-08-24T11:17:15.881Z,1.20
2022-08-24T11:19:43.223Z,1.40
2022-08-24T11:22:34.284Z,1.60
2022-08-24T11:25:13.456Z,1.20
2022-08-24T11:27:44.772Z,1.33
2022-08-24T11:30:23.626Z,1.35
2022-08-24T11:32:55.602Z,1.27
2022-08-24T11:35:27.404Z,1.25
2022-08-24T11:38:03.205Z,1.38
2022-08-24T11:40:45.479Z,1.00
2022-08-24T11:43:30.466Z,1.30
2022-08-24T11:46:12.860Z,1.27
2022-08-24T11:49:01.158Z,1.27
2022-08-24T11:51:41.088Z,1.50
2022-08-24T11:54:22.964Z,1.40
2022-08-24T11:57:08.481Z,1.20
2022-08-24T11:59:50.340Z,1.30
2022-08-24T12:02:28.046Z,1.20
2022-08-24T12:05:05.623Z,1.40
2022-08-24T12:07:52.842Z,1.38
2022-08-24T12:10:33.021Z,1.40
2022-08-24T12:13:14.510Z,1.30
2022-08-24T12:15:52.091Z,1.60
2022-08-24T12:18:30.143Z,1.40
2022-08-24T12:20:58.956Z,1.27
2022-08-24T12:23:33.308Z,1.60
2022-08-24T12:26:06.634Z,1.15
2022-08-24T12:28:41.458Z,1.30
2022-08-24T12:31:17.554Z,1.35
2022-08-24T12:33:51.516Z,1.40
2022-08-24T12:36:28.409Z,1.27
2022-08-24T12:39:09.291Z,1.42
2022-08-24T12:41:51.760Z,1.48
2022-08-24T12:44:28.658Z,1.30
2022-08-24T12:46:55.580Z,1.50
2022-08-24T12:49:30.434Z,1.38
2022-08-24T12:52:30.658Z,1.20
2022-08-24T12:55:22.872Z,1.52
2022-08-24T12:58:30.406Z,1.50
2022-08-24T13:00:53.220Z,1.40
2022-08-24T13:03:32.519Z,1.67
2022-08-24T13:06:05.062Z,1.50
2022-08-24T13:08:38.124Z,1.40
2022-08-24T13:11:14.631Z,1.40
2022-08-24T13:14:04.283Z,1.42
2022-08-24T13:17:12.581Z,1.40
2022-08-24T13:19:45.097Z,1.30
2022-08-24T13:22:45.484Z,1.20
2022-08-24T13:25:42.322Z,1.58
2022-08-24T13:28:32.333Z,1.58
2022-08-24T13:31:15.579Z,1.23
2022-08-24T13:33:50.346Z,1.38
2022-08-24T13:37:03.337Z,1.20
2022-08-24T13:40:00.736Z,1.30
2022-08-24T13:43:10.336Z,1.30
2022-08-24T13:45:47.955Z,1.50
2022-08-24T13:48:31.665Z,1.30
2022-08-24T13:51:34.913Z,1.45
2022-08-24T13:54:20.273Z,1.40
2022-08-24T13:57:33.854Z,1.35
2022-08-24T14:00:37.228Z,1.40
2022-08-24T14:03:35.265Z,1.48
2022-08-24T14:06:23.175Z,1.27
2022-08-24T14:09:06.668Z,1.30
2022-08-24T14:11:48.242Z,1.25
2022-08-24T14:14:45.487Z,1.60
2022-08-24T14:17:25.135Z,1.58
2022-08-24T14:20:14.017Z,1.50
2022-08-24T14:23:06.066Z,1.25
2022-08-24T14:25:36.041Z,1.20
2022-08-24T14:28:39.655Z,1.20
2022-08-24T14:31:20.120Z,1.40
2022-08-24T14:34:02.841Z,1.45
2022-08-24T14:36:46.572Z,1.40
2022-08-24T14:39:35.880Z,1.25
2022-08-24T14:42:16.787Z,1.40
2022-08-24T14:47:41.421Z,1.50
2022-08-24T14:50:16.300Z,1.42
2022-08-24T14:53:02.444Z,1.30
2022-08-24T14:55:41.465Z,1.40
2022-08-24T14:58:39.155Z,1.45
2022-08-24T15:01:39.839Z,1.40
2022-08-24T15:04:39.552Z,1.40
2022-08-24T15:07:27.403Z,1.40
2022-08-24T15:09:56.660Z,1.55
2022-08-24T15:13:01.491Z,1.48
2022-08-24T15:15:36.975Z,1.50
2022-08-24T15:18:18.964Z,1.55
2022-08-24T15:21:07.953Z,1.40
2022-08-24T15:23:52.811Z,1.35
2022-08-24T15:26:33.603Z,1.48
2022-08-24T15:29:14.870Z,1.50
2022-08-24T15:34:10.062Z,1.33
2022-08-24T15:36:37.142Z,1.77
2022-08-24T15:39:06.004Z,1.63
2022-08-24T15:41:38.343Z,1.40
2022-08-24T15:44:21.329Z,1.67
2022-08-24T15:46:57.504Z,1.63
2022-08-24T15:49:29.680Z,1.65
2022-08-24T15:52:00.312Z,1.52
2022-08-24T15:54:34.115Z,1.48
2022-08-24T15:57:05.658Z,1.70
2022-08-24T15:59:49.975Z,1.38
2022-08-24T16:02:27.888Z,1.67
2022-08-24T16:05:15.549Z,1.58
2022-08-24T16:08:09.927Z,1.42
2022-08-24T16:10:41.587Z,1.63
2022-08-24T16:13:21.203Z,1.70
2022-08-24T16:16:00.257Z,1.50
2022-08-24T16:18:46.130Z,1.48
2022-08-24T16:21:18.967Z,1.58
2022-08-24T16:23:58.331Z,1.50
2022-08-24T16:26:29.392Z,1.80
2022-08-24T16:31:48.657Z,1.30
2022-08-24T16:34:31.546Z,1.52
2022-08-24T16:36:59.243Z,1.85
2022-08-24T16:39:26.836Z,1.85
2022-08-24T16:41:58.420Z,1.70
2022-08-24T16:44:33.086Z,1.60
2022-08-24T16:47:01.777Z,1.42
2022-08-24T16:49:28.637Z,1.60
2022-08-24T16:51:55.584Z,1.58
2022-08-24T16:54:22.330Z,1.50
2022-08-24T16:56:49.377Z,1.48
2022-08-24T16:59:28.827Z,1.50
2022-08-24T17:01:55.851Z,1.50
2022-08-24T17:04:24.387Z,1.55
2022-08-24T17:06:51.210Z,1.50
2022-08-24T17:09:19.548Z,1.50
2022-08-24T17:11:46.507Z,1.42
2022-08-24T17:14:14.230Z,1.52
2022-08-24T17:16:41.447Z,1.58
2022-08-24T17:19:12.676Z,1.50
2022-08-24T17:21:42.876Z,1.42
2022-08-24T17:24:11.015Z,1.27
2022-08-24T17:26:48.243Z,1.30
2022-08-24T17:29:18.708Z,1.65
2022-08-24T17:31:47.952Z,1.67
2022-08-24T17:34:15.192Z,1.60
2022-08-24T17:36:45.688Z,1.33
2022-08-24T17:39:14.307Z,1.50
2022-08-24T17:41:41.689Z,1.60
2022-08-24T17:44:12.209Z,1.70
2022-08-24T17:46:44.070Z,1.38
2022-08-24T17:49:11.753Z,1.50
2022-08-24T17:51:39.066Z,1.67
2022-08-24T17:54:09.392Z,1.67
2022-08-24T17:56:36.885Z,1.65
2022-08-24T17:59:11.002Z,1.63
2022-08-24T18:01:38.629Z,1.60
2022-08-24T18:04:05.576Z,1.50
2022-08-24T18:06:32.840Z,1.67
2022-08-24T18:09:06.174Z,1.40
2022-08-24T18:11:34.437Z,1.52
2022-08-24T18:14:01.544Z,1.30
2022-08-24T18:16:28.677Z,1.50
2022-08-24T18:18:55.951Z,1.48
2022-08-24T18:21:23.064Z,1.40
2022-08-24T18:23:51.460Z,1.40
2022-08-24T18:26:25.903Z,1.38
2022-08-24T18:29:00.476Z,1.40
2022-08-24T18:31:30.771Z,1.55
2022-08-24T18:33:57.651Z,1.48
2022-08-24T18:36:24.625Z,1.40
2022-08-24T18:38:51.523Z,1.60
2022-08-24T18:41:18.591Z,1.40
2022-08-24T18:43:45.671Z,1.50
2022-08-24T18:46:14.190Z,1.45
2022-08-24T18:48:41.118Z,1.58
2022-08-24T18:51:08.264Z,1.42
2022-08-24T18:53:35.219Z,1.50
2022-08-24T18:56:08.135Z,1.60
2022-08-24T18:58:37.344Z,1.50
2022-08-24T19:03:57.253Z,1.80
2022-08-24T19:06:24.631Z,1.70
2022-08-24T19:08:51.480Z,1.60
2022-08-24T19:11:23.501Z,1.83
2022-08-24T19:13:50.560Z,1.70
2022-08-24T19:16:17.529Z,1.80
2022-08-24T19:18:44.389Z,1.65
2022-08-24T19:21:12.812Z,1.60
2022-08-24T19:23:41.330Z,1.60
2022-08-24T19:26:08.127Z,1.52
2022-08-24T19:28:35.199Z,1.70
2022-08-24T19:31:07.250Z,2.00
2022-08-24T19:33:42.646Z,1.65
2022-08-24T19:36:10.044Z,1.83
2022-08-24T19:38:38.464Z,1.90
2022-08-24T19:41:12.778Z,1.65
2022-08-24T19:43:42.153Z,1.92
2022-08-24T19:46:08.941Z,1.55
2022-08-24T19:48:38.617Z,1.95
2022-08-24T19:51:09.746Z,1.65
2022-08-24T19:53:38.684Z,1.85
2022-08-24T19:56:07.217Z,1.55
2022-08-24T19:58:43.150Z,1.95
2022-08-24T20:01:13.567Z,1.83
2022-08-24T20:03:40.662Z,1.75
2022-08-24T20:06:07.868Z,1.63
2022-08-24T20:08:34.791Z,1.80
2022-08-24T20:11:03.077Z,1.70
2022-08-24T20:13:29.838Z,1.73
2022-08-24T20:15:57.622Z,2.00
2022-08-24T20:18:29.686Z,1.83
2022-08-24T20:20:56.988Z,1.98
2022-08-24T20:23:24.049Z,1.83
2022-08-24T20:25:53.187Z,2.10
2022-08-24T20:28:30.533Z,1.60
2022-08-24T20:30:58.974Z,1.92
2022-08-24T20:33:25.900Z,1.90
2022-08-24T20:35:52.922Z,1.85
2022-08-24T20:38:21.501Z,1.80
2022-08-24T20:40:50.105Z,1.83
2022-08-24T20:43:17.357Z,1.83
2022-08-24T20:45:45.744Z,1.83
2022-08-24T20:48:14.146Z,1.77
2022-08-24T20:50:42.138Z,2.00
2022-08-24T20:53:10.037Z,1.92
2022-08-24T20:55:37.759Z,2.20
2022-08-24T20:58:05.156Z,2.30
2022-08-24T21:00:32.197Z,1.75
2022-08-24T21:03:00.773Z,2.10
2022-08-24T21:05:27.989Z,2.00
2022-08-24T21:07:54.990Z,1.90
2022-08-24T21:10:26.646Z,2.10
2022-08-24T21:12:54.496Z,1.80
2022-08-24T21:15:21.937Z,1.88
2022-08-24T21:17:49.715Z,2.10
2022-08-24T21:20:19.703Z,1.63
2022-08-24T21:22:46.740Z,1.90
2022-08-24T21:25:15.338Z,2.30
2022-08-24T21:27:46.276Z,1.98
2022-08-24T21:30:18.625Z,2.03
2022-08-24T21:32:46.069Z,2.03
2022-08-24T21:35:13.516Z,1.90
2022-08-24T21:37:44.042Z,1.92
2022-08-24T21:40:11.557Z,1.90
2022-08-24T21:42:38.533Z,1.90
2022-08-24T21:45:07.407Z,1.80
2022-08-24T21:47:34.377Z,1.85
2022-08-24T21:50:01.505Z,1.85
2022-08-24T21:52:28.509Z,2.03
2022-08-24T21:54:56.817Z,2.00
2022-08-24T21:57:23.599Z,1.90
2022-08-24T21:59:50.570Z,1.92
2022-08-24T22:02:43.104Z,2.05
2022-08-24T22:05:10.473Z,1.70
2022-08-24T22:07:37.461Z,2.08
2022-08-24T22:10:08.561Z,1.80
2022-08-24T22:12:36.579Z,1.90
2022-08-24T22:15:06.696Z,1.90
2022-08-24T22:17:33.574Z,1.65
2022-08-24T22:20:00.443Z,1.83
2022-08-24T22:22:27.709Z,2.10
2022-08-24T22:24:54.665Z,2.10
2022-08-24T22:27:25.001Z,2.15
2022-08-24T22:29:52.852Z,2.22
2022-08-24T22:32:19.815Z,1.70
2022-08-24T22:34:47.035Z,1.90
2022-08-24T22:37:13.999Z,1.90
2022-08-24T22:39:40.844Z,1.75
2022-08-24T22:42:08.181Z,1.75
2022-08-24T22:44:36.700Z,2.13
2022-08-24T22:47:12.943Z,2.10
2022-08-24T22:49:42.765Z,1.83
2022-08-24T22:52:11.259Z,1.98
2022-08-24T22:54:38.168Z,2.20
2022-08-24T22:57:05.640Z,2.05
2022-08-24T22:59:36.929Z,2.10
2022-08-24T23:02:07.923Z,2.13
2022-08-24T23:04:38.316Z,2.28
2022-08-24T23:07:07.516Z,2.10
2022-08-24T23:09:44.131Z,2.00
2022-08-24T23:12:17.284Z,1.85
2022-08-24T23:14:46.086Z,2.63
2022-08-24T23:17:13.343Z,1.98
2022-08-24T23:19:40.291Z,2.00
2022-08-24T23:22:10.000Z,2.30
2022-08-24T23:24:37.939Z,2.03
2022-08-24T23:27:07.341Z,2.13
2022-08-24T23:29:36.114Z,2.20
2022-08-24T23:32:05.660Z,2.38
2022-08-24T23:34:33.117Z,2.10
2022-08-24T23:37:00.465Z,2.10
2022-08-24T23:39:27.840Z,1.92
2022-08-24T23:41:54.704Z,2.03
2022-08-24T23:44:25.652Z,2.35
2022-08-24T23:46:53.535Z,2.30
2022-08-24T23:49:23.692Z,2.30
2022-08-24T23:51:52.537Z,2.42
2022-08-24T23:54:21.573Z,1.92
2022-08-24T23:56:49.357Z,2.30
2022-08-24T23:59:20.156Z,2.15
